sensor_id;sensor_type;location;lat;lon;timestamp;temperature;humidity
71291;DHT22;59073;51.994;4.448;2023-07-13T00:01:30;18.55;80.45
71291;DHT22;59073;51.994;4.448;2023-07-13T00:03:57;18.62;79.97
71291;DHT22;59073;51.994;4.448;2023-07-13T00:06:22;18.68;79.86
71291;DHT22;59073;51.994;4.448;2023-07-13T00:08:48;18.61;80.21
71291;DHT22;59073;51.994;4.448;2023-07-13T00:11:15;18.72;79.99
71291;DHT22;59073;51.994;4.448;2023-07-13T00:13:42;18.79;79.93
71291;DHT22;59073;51.994;4.448;2023-07-13T00:16:10;18.78;79.56
71291;DHT22;59073;51.994;4.448;2023-07-13T00:18:36;18.68;79.73
71291;DHT22;59073;51.994;4.448;2023-07-13T00:21:03;18.71;79.80
71291;DHT22;59073;51.994;4.448;2023-07-13T00:23:33;18.71;79.71
71291;DHT22;59073;51.994;4.448;2023-07-13T00:26:00;18.75;79.59
71291;DHT22;59073;51.994;4.448;2023-07-13T00:28:26;18.84;78.96
71291;DHT22;59073;51.994;4.448;2023-07-13T00:30:51;18.78;78.52
71291;DHT22;59073;51.994;4.448;2023-07-13T00:33:16;18.78;78.69
71291;DHT22;59073;51.994;4.448;2023-07-13T00:35:42;18.74;78.85
71291;DHT22;59073;51.994;4.448;2023-07-13T00:38:09;18.67;78.63
71291;DHT22;59073;51.994;4.448;2023-07-13T00:40:35;18.65;78.86
71291;DHT22;59073;51.994;4.448;2023-07-13T00:43:01;18.60;78.96
71291;DHT22;59073;51.994;4.448;2023-07-13T00:47:52;18.67;78.37
71291;DHT22;59073;51.994;4.448;2023-07-13T00:50:19;18.60;78.33
71291;DHT22;59073;51.994;4.448;2023-07-13T00:52:50;18.58;78.19
71291;DHT22;59073;51.994;4.448;2023-07-13T00:55:17;18.51;78.37
71291;DHT22;59073;51.994;4.448;2023-07-13T00:57:44;18.38;78.64
71291;DHT22;59073;51.994;4.448;2023-07-13T01:00:10;18.36;78.75
71291;DHT22;59073;51.994;4.448;2023-07-13T01:02:39;18.36;78.54
71291;DHT22;59073;51.994;4.448;2023-07-13T01:05:16;18.36;78.44
71291;DHT22;59073;51.994;4.448;2023-07-13T01:07:44;18.30;78.12
71291;DHT22;59073;51.994;4.448;2023-07-13T01:10:12;18.12;78.24
71291;DHT22;59073;51.994;4.448;2023-07-13T01:12:38;17.93;78.96
71291;DHT22;59073;51.994;4.448;2023-07-13T01:15:04;17.80;79.20
71291;DHT22;59073;51.994;4.448;2023-07-13T01:17:31;17.80;79.19
71291;DHT22;59073;51.994;4.448;2023-07-13T01:19:59;17.80;79.02
71291;DHT22;59073;51.994;4.448;2023-07-13T01:22:25;17.76;78.97
71291;DHT22;59073;51.994;4.448;2023-07-13T01:24:53;17.63;79.60
71291;DHT22;59073;51.994;4.448;2023-07-13T01:27:25;17.65;79.58
71291;DHT22;59073;51.994;4.448;2023-07-13T01:29:52;17.71;79.22
71291;DHT22;59073;51.994;4.448;2023-07-13T01:32:22;17.69;78.96
71291;DHT22;59073;51.994;4.448;2023-07-13T01:34:53;17.62;79.17
71291;DHT22;59073;51.994;4.448;2023-07-13T01:37:20;17.55;79.39
71291;DHT22;59073;51.994;4.448;2023-07-13T01:39:46;17.59;79.03
71291;DHT22;59073;51.994;4.448;2023-07-13T01:42:12;17.52;79.24
71291;DHT22;59073;51.994;4.448;2023-07-13T01:44:37;17.55;78.97
71291;DHT22;59073;51.994;4.448;2023-07-13T01:47:03;17.51;78.87
71291;DHT22;59073;51.994;4.448;2023-07-13T01:49:29;17.48;78.82
71291;DHT22;59073;51.994;4.448;2023-07-13T01:51:54;17.43;78.90
71291;DHT22;59073;51.994;4.448;2023-07-13T01:54:20;17.35;78.76
71291;DHT22;59073;51.994;4.448;2023-07-13T01:56:45;17.30;78.59
71291;DHT22;59073;51.994;4.448;2023-07-13T01:59:11;17.30;79.03
71291;DHT22;59073;51.994;4.448;2023-07-13T02:01:36;17.28;78.86
71291;DHT22;59073;51.994;4.448;2023-07-13T02:04:02;17.32;78.48
71291;DHT22;59073;51.994;4.448;2023-07-13T02:06:28;17.28;78.53
71291;DHT22;59073;51.994;4.448;2023-07-13T02:08:53;17.20;79.02
71291;DHT22;59073;51.994;4.448;2023-07-13T02:11:19;17.24;79.13
71291;DHT22;59073;51.994;4.448;2023-07-13T02:13:44;17.22;79.32
71291;DHT22;59073;51.994;4.448;2023-07-13T02:16:09;17.28;79.12
71291;DHT22;59073;51.994;4.448;2023-07-13T02:18:35;17.34;78.95
71291;DHT22;59073;51.994;4.448;2023-07-13T02:21:00;17.34;78.97
71291;DHT22;59073;51.994;4.448;2023-07-13T02:23:26;17.35;79.12
71291;DHT22;59073;51.994;4.448;2023-07-13T02:25:56;17.31;79.43
71291;DHT22;59073;51.994;4.448;2023-07-13T02:28:22;17.27;79.80
71291;DHT22;59073;51.994;4.448;2023-07-13T02:30:47;17.32;79.90
71291;DHT22;59073;51.994;4.448;2023-07-13T02:33:13;17.35;80.04
71291;DHT22;59073;51.994;4.448;2023-07-13T02:35:38;17.38;79.87
71291;DHT22;59073;51.994;4.448;2023-07-13T02:38:04;17.36;80.03
71291;DHT22;59073;51.994;4.448;2023-07-13T02:40:29;17.31;80.29
71291;DHT22;59073;51.994;4.448;2023-07-13T02:42:58;17.31;80.38
71291;DHT22;59073;51.994;4.448;2023-07-13T02:45:24;17.36;80.34
71291;DHT22;59073;51.994;4.448;2023-07-13T02:47:49;17.41;80.43
71291;DHT22;59073;51.994;4.448;2023-07-13T02:50:15;17.43;80.58
71291;DHT22;59073;51.994;4.448;2023-07-13T02:52:40;17.51;80.80
71291;DHT22;59073;51.994;4.448;2023-07-13T02:55:06;17.53;80.74
71291;DHT22;59073;51.994;4.448;2023-07-13T02:57:31;17.55;80.86
71291;DHT22;59073;51.994;4.448;2023-07-13T02:59:58;17.53;80.99
71291;DHT22;59073;51.994;4.448;2023-07-13T03:02:24;17.52;81.13
71291;DHT22;59073;51.994;4.448;2023-07-13T03:04:50;17.56;81.11
71291;DHT22;59073;51.994;4.448;2023-07-13T03:07:15;17.62;81.28
71291;DHT22;59073;51.994;4.448;2023-07-13T03:09:41;17.65;81.34
71291;DHT22;59073;51.994;4.448;2023-07-13T03:12:07;17.65;81.39
71291;DHT22;59073;51.994;4.448;2023-07-13T03:14:32;17.65;81.53
71291;DHT22;59073;51.994;4.448;2023-07-13T03:16:58;17.69;81.51
71291;DHT22;59073;51.994;4.448;2023-07-13T03:19:23;17.72;81.50
71291;DHT22;59073;51.994;4.448;2023-07-13T03:21:49;17.68;81.54
71291;DHT22;59073;51.994;4.448;2023-07-13T03:24:14;17.72;81.33
71291;DHT22;59073;51.994;4.448;2023-07-13T03:26:40;17.72;81.19
71291;DHT22;59073;51.994;4.448;2023-07-13T03:29:06;17.69;81.08
71291;DHT22;59073;51.994;4.448;2023-07-13T03:31:34;17.63;81.43
71291;DHT22;59073;51.994;4.448;2023-07-13T03:34:00;17.63;81.49
71291;DHT22;59073;51.994;4.448;2023-07-13T03:36:29;17.58;81.64
71291;DHT22;59073;51.994;4.448;2023-07-13T03:38:57;17.56;81.88
71291;DHT22;59073;51.994;4.448;2023-07-13T03:41:24;17.55;81.70
71291;DHT22;59073;51.994;4.448;2023-07-13T03:43:50;17.55;81.58
71291;DHT22;59073;51.994;4.448;2023-07-13T03:46:17;17.55;81.59
71291;DHT22;59073;51.994;4.448;2023-07-13T03:48:45;17.61;81.57
71291;DHT22;59073;51.994;4.448;2023-07-13T03:51:12;17.63;81.22
71291;DHT22;59073;51.994;4.448;2023-07-13T03:53:41;17.69;81.25
71291;DHT22;59073;51.994;4.448;2023-07-13T03:56:08;17.72;81.08
71291;DHT22;59073;51.994;4.448;2023-07-13T03:58:36;17.79;81.25
71291;DHT22;59073;51.994;4.448;2023-07-13T04:01:05;17.86;81.01
71291;DHT22;59073;51.994;4.448;2023-07-13T04:03:32;17.93;80.90
71291;DHT22;59073;51.994;4.448;2023-07-13T04:06:03;18.02;80.84
71291;DHT22;59073;51.994;4.448;2023-07-13T04:08:32;18.04;80.72
71291;DHT22;59073;51.994;4.448;2023-07-13T04:10:58;18.13;80.99
71291;DHT22;59073;51.994;4.448;2023-07-13T04:13:25;18.31;80.71
71291;DHT22;59073;51.994;4.448;2023-07-13T04:15:52;18.38;80.77
71291;DHT22;59073;51.994;4.448;2023-07-13T04:18:17;18.54;81.02
71291;DHT22;59073;51.994;4.448;2023-07-13T04:20:43;18.68;80.57
71291;DHT22;59073;51.994;4.448;2023-07-13T04:23:09;18.85;80.75
71291;DHT22;59073;51.994;4.448;2023-07-13T04:25:34;18.95;80.39
71291;DHT22;59073;51.994;4.448;2023-07-13T04:28:00;19.11;80.03
71291;DHT22;59073;51.994;4.448;2023-07-13T04:30:26;19.39;79.42
71291;DHT22;59073;51.994;4.448;2023-07-13T04:32:52;19.46;78.47
71291;DHT22;59073;51.994;4.448;2023-07-13T04:35:21;19.37;78.14
71291;DHT22;59073;51.994;4.448;2023-07-13T04:37:48;19.24;78.65
71291;DHT22;59073;51.994;4.448;2023-07-13T04:40:19;19.30;78.73
71291;DHT22;59073;51.994;4.448;2023-07-13T04:42:46;19.32;78.36
71291;DHT22;59073;51.994;4.448;2023-07-13T04:45:13;19.40;78.22
71291;DHT22;59073;51.994;4.448;2023-07-13T04:47:39;19.60;78.04
71291;DHT22;59073;51.994;4.448;2023-07-13T04:50:06;20.04;77.62
71291;DHT22;59073;51.994;4.448;2023-07-13T04:52:32;20.84;76.10
71291;DHT22;59073;51.994;4.448;2023-07-13T04:54:58;21.62;73.33
71291;DHT22;59073;51.994;4.448;2023-07-13T04:57:24;22.14;71.29
71291;DHT22;59073;51.994;4.448;2023-07-13T04:59:50;22.83;68.59
71291;DHT22;59073;51.994;4.448;2023-07-13T05:02:15;23.28;67.61
71291;DHT22;59073;51.994;4.448;2023-07-13T05:04:41;23.63;65.72
71291;DHT22;59073;51.994;4.448;2023-07-13T05:07:07;23.52;65.20
71291;DHT22;59073;51.994;4.448;2023-07-13T05:09:32;22.97;65.53
71291;DHT22;59073;51.994;4.448;2023-07-13T05:11:58;22.14;67.63
71291;DHT22;59073;51.994;4.448;2023-07-13T05:14:23;21.72;69.22
71291;DHT22;59073;51.994;4.448;2023-07-13T05:16:48;21.48;70.21
71291;DHT22;59073;51.994;4.448;2023-07-13T05:19:14;21.24;70.62
71291;DHT22;59073;51.994;4.448;2023-07-13T05:21:39;21.04;71.35
71291;DHT22;59073;51.994;4.448;2023-07-13T05:24:06;20.99;71.27
71291;DHT22;59073;51.994;4.448;2023-07-13T05:26:31;20.99;70.93
71291;DHT22;59073;51.994;4.448;2023-07-13T05:28:57;20.93;71.34
71291;DHT22;59073;51.994;4.448;2023-07-13T05:31:22;20.84;71.45
71291;DHT22;59073;51.994;4.448;2023-07-13T05:33:48;20.83;71.94
71291;DHT22;59073;51.994;4.448;2023-07-13T05:36:13;20.87;72.04
71291;DHT22;59073;51.994;4.448;2023-07-13T05:38:39;20.93;71.63
71291;DHT22;59073;51.994;4.448;2023-07-13T05:41:06;20.96;71.56
71291;DHT22;59073;51.994;4.448;2023-07-13T05:43:32;20.96;71.79
71291;DHT22;59073;51.994;4.448;2023-07-13T05:45:58;20.86;71.67
71291;DHT22;59073;51.994;4.448;2023-07-13T05:48:24;20.80;71.59
71291;DHT22;59073;51.994;4.448;2023-07-13T05:50:49;20.94;71.45
71291;DHT22;59073;51.994;4.448;2023-07-13T05:53:15;20.92;71.30
71291;DHT22;59073;51.994;4.448;2023-07-13T05:55:45;20.89;71.27
71291;DHT22;59073;51.994;4.448;2023-07-13T05:58:16;20.68;71.62
71291;DHT22;59073;51.994;4.448;2023-07-13T06:00:42;20.57;72.28
71291;DHT22;59073;51.994;4.448;2023-07-13T06:03:08;20.52;72.66
71291;DHT22;59073;51.994;4.448;2023-07-13T06:05:35;20.25;73.41
71291;DHT22;59073;51.994;4.448;2023-07-13T06:08:02;20.17;73.94
71291;DHT22;59073;51.994;4.448;2023-07-13T06:10:27;20.20;73.52
71291;DHT22;59073;51.994;4.448;2023-07-13T06:12:53;20.05;73.50
71291;DHT22;59073;51.994;4.448;2023-07-13T06:15:18;20.14;73.43
71291;DHT22;59073;51.994;4.448;2023-07-13T06:17:44;20.93;72.16
71291;DHT22;59073;51.994;4.448;2023-07-13T06:20:10;22.33;68.52
71291;DHT22;59073;51.994;4.448;2023-07-13T06:22:35;22.91;64.85
71291;DHT22;59073;51.994;4.448;2023-07-13T06:25:01;23.01;64.89
71291;DHT22;59073;51.994;4.448;2023-07-13T06:27:27;23.19;63.74
71291;DHT22;59073;51.994;4.448;2023-07-13T06:29:52;23.32;63.77
71291;DHT22;59073;51.994;4.448;2023-07-13T06:32:18;23.55;61.78
71291;DHT22;59073;51.994;4.448;2023-07-13T06:34:43;23.35;63.06
71291;DHT22;59073;51.994;4.448;2023-07-13T06:37:10;23.42;62.29
71291;DHT22;59073;51.994;4.448;2023-07-13T06:39:35;22.78;63.69
71291;DHT22;59073;51.994;4.448;2023-07-13T06:42:01;22.60;64.62
71291;DHT22;59073;51.994;4.448;2023-07-13T06:44:26;24.18;62.12
71291;DHT22;59073;51.994;4.448;2023-07-13T06:46:52;25.40;56.70
71291;DHT22;59073;51.994;4.448;2023-07-13T06:49:18;25.57;55.96
71291;DHT22;59073;51.994;4.448;2023-07-13T06:51:43;25.05;57.40
71291;DHT22;59073;51.994;4.448;2023-07-13T06:54:08;25.40;57.64
71291;DHT22;59073;51.994;4.448;2023-07-13T06:56:34;25.49;56.63
71291;DHT22;59073;51.994;4.448;2023-07-13T06:59:00;24.79;57.26
71291;DHT22;59073;51.994;4.448;2023-07-13T07:01:25;24.95;58.36
71291;DHT22;59073;51.994;4.448;2023-07-13T07:03:51;25.10;58.25
71291;DHT22;59073;51.994;4.448;2023-07-13T07:06:19;25.16;57.90
71291;DHT22;59073;51.994;4.448;2023-07-13T07:08:45;25.13;58.70
71291;DHT22;59073;51.994;4.448;2023-07-13T07:11:16;24.40;60.48
71291;DHT22;59073;51.994;4.448;2023-07-13T07:13:42;23.45;61.14
71291;DHT22;59073;51.994;4.448;2023-07-13T07:16:08;22.71;62.79
71291;DHT22;59073;51.994;4.448;2023-07-13T07:18:34;22.56;63.99
71291;DHT22;59073;51.994;4.448;2023-07-13T07:21:00;22.92;64.54
71291;DHT22;59073;51.994;4.448;2023-07-13T07:23:25;23.43;62.20
71291;DHT22;59073;51.994;4.448;2023-07-13T07:25:51;23.58;61.70
71291;DHT22;59073;51.994;4.448;2023-07-13T07:28:18;23.77;60.94
71291;DHT22;59073;51.994;4.448;2023-07-13T07:30:44;24.09;59.85
71291;DHT22;59073;51.994;4.448;2023-07-13T07:33:11;24.42;59.87
71291;DHT22;59073;51.994;4.448;2023-07-13T07:35:36;24.58;59.82
71291;DHT22;59073;51.994;4.448;2023-07-13T07:38:02;24.25;58.71
71291;DHT22;59073;51.994;4.448;2023-07-13T07:40:28;23.82;60.45
71291;DHT22;59073;51.994;4.448;2023-07-13T07:42:54;23.59;61.51
71291;DHT22;59073;51.994;4.448;2023-07-13T07:45:20;23.80;60.65
71291;DHT22;59073;51.994;4.448;2023-07-13T07:47:46;23.48;60.89
71291;DHT22;59073;51.994;4.448;2023-07-13T07:50:13;23.37;62.34
71291;DHT22;59073;51.994;4.448;2023-07-13T07:52:38;23.96;61.52
71291;DHT22;59073;51.994;4.448;2023-07-13T07:55:06;23.58;60.92
71291;DHT22;59073;51.994;4.448;2023-07-13T07:57:32;22.86;61.75
71291;DHT22;59073;51.994;4.448;2023-07-13T07:59:58;22.56;62.68
71291;DHT22;59073;51.994;4.448;2023-07-13T08:02:25;23.10;62.60
71291;DHT22;59073;51.994;4.448;2023-07-13T08:04:51;23.69;60.45
71291;DHT22;59073;51.994;4.448;2023-07-13T08:07:17;23.74;60.35
71291;DHT22;59073;51.994;4.448;2023-07-13T08:09:42;24.17;59.99
71291;DHT22;59073;51.994;4.448;2023-07-13T08:12:08;24.17;59.45
71291;DHT22;59073;51.994;4.448;2023-07-13T08:14:34;24.17;58.96
71291;DHT22;59073;51.994;4.448;2023-07-13T08:16:59;24.83;57.86
71291;DHT22;59073;51.994;4.448;2023-07-13T08:19:25;25.49;55.63
71291;DHT22;59073;51.994;4.448;2023-07-13T08:21:50;25.08;56.73
71291;DHT22;59073;51.994;4.448;2023-07-13T08:24:16;24.57;57.43
71291;DHT22;59073;51.994;4.448;2023-07-13T08:26:44;23.48;60.13
71291;DHT22;59073;51.994;4.448;2023-07-13T08:29:11;22.78;61.94
71291;DHT22;59073;51.994;4.448;2023-07-13T08:31:37;22.78;62.63
71291;DHT22;59073;51.994;4.448;2023-07-13T08:34:02;23.31;60.37
71291;DHT22;59073;51.994;4.448;2023-07-13T08:36:29;23.11;60.36
71291;DHT22;59073;51.994;4.448;2023-07-13T08:38:54;22.63;62.21
71291;DHT22;59073;51.994;4.448;2023-07-13T08:41:21;22.06;62.79
71291;DHT22;59073;51.994;4.448;2023-07-13T08:43:51;21.91;64.69
71291;DHT22;59073;51.994;4.448;2023-07-13T08:46:33;21.55;65.73
71291;DHT22;59073;51.994;4.448;2023-07-13T08:49:05;21.47;66.27
71291;DHT22;59073;51.994;4.448;2023-07-13T08:57:08;21.55;66.04
71291;DHT22;59073;51.994;4.448;2023-07-13T08:59:35;21.72;64.42
71291;DHT22;59073;51.994;4.448;2023-07-13T09:03:00;22.10;63.22
71291;DHT22;59073;51.994;4.448;2023-07-13T09:05:18;22.20;63.75
71291;DHT22;59073;51.994;4.448;2023-07-13T09:10:57;22.29;63.60
71291;DHT22;59073;51.994;4.448;2023-07-13T09:13:37;22.10;63.81
71291;DHT22;59073;51.994;4.448;2023-07-13T09:16:05;21.98;63.65
71291;DHT22;59073;51.994;4.448;2023-07-13T09:19:04;21.89;63.78
71291;DHT22;59073;51.994;4.448;2023-07-13T09:21:39;21.93;64.30
71291;DHT22;59073;51.994;4.448;2023-07-13T09:24:37;21.75;63.80
71291;DHT22;59073;51.994;4.448;2023-07-13T09:27:18;21.91;64.03
71291;DHT22;59073;51.994;4.448;2023-07-13T09:29:54;21.66;64.35
71291;DHT22;59073;51.994;4.448;2023-07-13T09:32:26;21.69;64.64
71291;DHT22;59073;51.994;4.448;2023-07-13T09:34:53;21.68;65.41
71291;DHT22;59073;51.994;4.448;2023-07-13T09:37:30;21.48;66.11
71291;DHT22;59073;51.994;4.448;2023-07-13T09:39:59;21.35;66.78
71291;DHT22;59073;51.994;4.448;2023-07-13T09:42:26;22.19;66.85
71291;DHT22;59073;51.994;4.448;2023-07-13T09:44:56;23.14;64.28
71291;DHT22;59073;51.994;4.448;2023-07-13T09:50:06;24.23;60.05
71291;DHT22;59073;51.994;4.448;2023-07-13T09:52:44;23.58;60.32
71291;DHT22;59073;51.994;4.448;2023-07-13T09:55:46;22.91;62.52
71291;DHT22;59073;51.994;4.448;2023-07-13T10:00:41;23.37;60.24
71291;DHT22;59073;51.994;4.448;2023-07-13T10:03:20;23.32;61.11
71291;DHT22;59073;51.994;4.448;2023-07-13T10:05:49;23.87;61.09
71291;DHT22;59073;51.994;4.448;2023-07-13T10:08:25;24.45;59.73
71291;DHT22;59073;51.994;4.448;2023-07-13T10:16:14;23.92;59.14
71291;DHT22;59073;51.994;4.448;2023-07-13T10:18:49;23.31;60.31
71291;DHT22;59073;51.994;4.448;2023-07-13T10:21:21;23.15;60.38
71291;DHT22;59073;51.994;4.448;2023-07-13T10:23:53;23.01;60.23
71291;DHT22;59073;51.994;4.448;2023-07-13T10:26:26;22.39;61.68
71291;DHT22;59073;51.994;4.448;2023-07-13T10:28:57;22.24;61.98
71291;DHT22;59073;51.994;4.448;2023-07-13T10:31:24;22.24;62.07
71291;DHT22;59073;51.994;4.448;2023-07-13T10:33:50;23.22;62.66
71291;DHT22;59073;51.994;4.448;2023-07-13T10:36:28;23.38;59.83
71291;DHT22;59073;51.994;4.448;2023-07-13T10:38:59;23.66;59.92
71291;DHT22;59073;51.994;4.448;2023-07-13T10:41:30;23.76;58.39
71291;DHT22;59073;51.994;4.448;2023-07-13T10:43:58;23.94;56.78
71291;DHT22;59073;51.994;4.448;2023-07-13T10:46:27;23.72;55.39
71291;DHT22;59073;51.994;4.448;2023-07-13T10:49:02;23.69;55.46
71291;DHT22;59073;51.994;4.448;2023-07-13T10:51:30;23.55;56.95
71291;DHT22;59073;51.994;4.448;2023-07-13T10:54:20;23.37;58.34
71291;DHT22;59073;51.994;4.448;2023-07-13T10:57:38;23.66;57.41
71291;DHT22;59073;51.994;4.448;2023-07-13T10:59:38;24.27;56.69
71291;DHT22;59073;51.994;4.448;2023-07-13T11:02:21;24.76;55.89
71291;DHT22;59073;51.994;4.448;2023-07-13T11:04:48;24.85;54.46
71291;DHT22;59073;51.994;4.448;2023-07-13T11:07:25;24.76;53.78
71291;DHT22;59073;51.994;4.448;2023-07-13T11:09:53;24.79;54.03
71291;DHT22;59073;51.994;4.448;2023-07-13T11:25:42;24.55;54.65
71291;DHT22;59073;51.994;4.448;2023-07-13T11:33:28;24.50;55.10
71291;DHT22;59073;51.994;4.448;2023-07-13T11:36:00;24.31;55.02
71291;DHT22;59073;51.994;4.448;2023-07-13T11:38:37;24.62;54.90
71291;DHT22;59073;51.994;4.448;2023-07-13T11:41:17;24.88;54.80
71291;DHT22;59073;51.994;4.448;2023-07-13T11:43:44;25.09;55.34
71291;DHT22;59073;51.994;4.448;2023-07-13T11:46:25;25.20;54.27
71291;DHT22;59073;51.994;4.448;2023-07-13T11:48:52;25.26;53.12
71291;DHT22;59073;51.994;4.448;2023-07-13T11:51:27;25.24;53.48
71291;DHT22;59073;51.994;4.448;2023-07-13T11:53:56;25.24;55.36
71291;DHT22;59073;51.994;4.448;2023-07-13T11:56:24;25.37;53.19
71291;DHT22;59073;51.994;4.448;2023-07-13T11:58:53;25.23;53.34
71291;DHT22;59073;51.994;4.448;2023-07-13T12:01:31;25.39;53.35
71291;DHT22;59073;51.994;4.448;2023-07-13T12:04:03;25.44;53.02
71291;DHT22;59073;51.994;4.448;2023-07-13T12:06:31;25.19;53.57
71291;DHT22;59073;51.994;4.448;2023-07-13T12:09:02;25.08;54.68
71291;DHT22;59073;51.994;4.448;2023-07-13T12:11:29;25.23;54.66
71291;DHT22;59073;51.994;4.448;2023-07-13T12:13:56;25.30;53.61
71291;DHT22;59073;51.994;4.448;2023-07-13T12:16:32;25.23;54.53
71291;DHT22;59073;51.994;4.448;2023-07-13T12:19:00;25.23;53.93
71291;DHT22;59073;51.994;4.448;2023-07-13T12:21:32;25.19;55.00
71291;DHT22;59073;51.994;4.448;2023-07-13T12:23:58;25.29;55.48
71291;DHT22;59073;51.994;4.448;2023-07-13T12:26:24;25.29;53.62
71291;DHT22;59073;51.994;4.448;2023-07-13T12:28:53;25.29;53.90
71291;DHT22;59073;51.994;4.448;2023-07-13T12:31:37;25.34;53.72
71291;DHT22;59073;51.994;4.448;2023-07-13T12:34:11;25.32;52.40
71291;DHT22;59073;51.994;4.448;2023-07-13T12:37:02;25.43;52.25
71291;DHT22;59073;51.994;4.448;2023-07-13T12:39:36;25.40;52.54
71291;DHT22;59073;51.994;4.448;2023-07-13T12:42:25;25.39;52.96
71291;DHT22;59073;51.994;4.448;2023-07-13T12:45:01;25.40;53.23
71291;DHT22;59073;51.994;4.448;2023-07-13T12:47:28;25.40;54.03
71291;DHT22;59073;51.994;4.448;2023-07-13T12:49:57;25.46;51.41
71291;DHT22;59073;51.994;4.448;2023-07-13T12:55:13;25.08;52.05
71291;DHT22;59073;51.994;4.448;2023-07-13T12:57:41;24.93;53.42
71291;DHT22;59073;51.994;4.448;2023-07-13T13:00:26;25.01;53.54
71291;DHT22;59073;51.994;4.448;2023-07-13T13:02:54;24.99;54.08
71291;DHT22;59073;51.994;4.448;2023-07-13T13:05:22;24.99;51.82
71291;DHT22;59073;51.994;4.448;2023-07-13T13:07:49;24.83;52.60
71291;DHT22;59073;51.994;4.448;2023-07-13T13:10:15;24.83;53.54
71291;DHT22;59073;51.994;4.448;2023-07-13T13:12:41;24.81;52.15
71291;DHT22;59073;51.994;4.448;2023-07-13T13:15:10;24.69;52.42
71291;DHT22;59073;51.994;4.448;2023-07-13T13:17:40;24.71;52.93
71291;DHT22;59073;51.994;4.448;2023-07-13T13:20:15;24.65;53.18
71291;DHT22;59073;51.994;4.448;2023-07-13T13:22:41;24.67;52.62
71291;DHT22;59073;51.994;4.448;2023-07-13T13:25:10;24.71;53.31
71291;DHT22;59073;51.994;4.448;2023-07-13T13:27:36;24.71;53.63
71291;DHT22;59073;51.994;4.448;2023-07-13T13:30:02;24.64;53.88
71291;DHT22;59073;51.994;4.448;2023-07-13T13:32:28;24.75;53.51
71291;DHT22;59073;51.994;4.448;2023-07-13T13:34:53;24.71;54.80
71291;DHT22;59073;51.994;4.448;2023-07-13T13:37:21;24.78;53.30
71291;DHT22;59073;51.994;4.448;2023-07-13T13:39:49;24.73;53.11
71291;DHT22;59073;51.994;4.448;2023-07-13T13:42:15;24.58;53.32
71291;DHT22;59073;51.994;4.448;2023-07-13T13:44:40;24.57;52.57
71291;DHT22;59073;51.994;4.448;2023-07-13T13:47:39;24.62;53.63
71291;DHT22;59073;51.994;4.448;2023-07-13T13:50:25;24.85;54.98
71291;DHT22;59073;51.994;4.448;2023-07-13T13:52:50;24.96;53.11
71291;DHT22;59073;51.994;4.448;2023-07-13T13:55:19;24.93;53.60
71291;DHT22;59073;51.994;4.448;2023-07-13T13:57:47;24.85;53.39
71291;DHT22;59073;51.994;4.448;2023-07-13T14:00:14;24.86;54.34
71291;DHT22;59073;51.994;4.448;2023-07-13T14:02:45;24.85;55.30
71291;DHT22;59073;51.994;4.448;2023-07-13T14:05:21;24.82;55.63
71291;DHT22;59073;51.994;4.448;2023-07-13T14:07:47;24.92;53.35
71291;DHT22;59073;51.994;4.448;2023-07-13T14:10:18;24.68;54.37
71291;DHT22;59073;51.994;4.448;2023-07-13T14:12:52;24.20;54.89
71291;DHT22;59073;51.994;4.448;2023-07-13T14:15:24;23.87;55.04
71291;DHT22;59073;51.994;4.448;2023-07-13T14:17:51;23.74;56.25
71291;DHT22;59073;51.994;4.448;2023-07-13T14:20:18;23.93;57.39
71291;DHT22;59073;51.994;4.448;2023-07-13T14:22:45;24.24;57.34
71291;DHT22;59073;51.994;4.448;2023-07-13T14:25:13;24.38;57.70
71291;DHT22;59073;51.994;4.448;2023-07-13T14:27:39;24.38;56.41
71291;DHT22;59073;51.994;4.448;2023-07-13T14:30:15;24.51;55.27
71291;DHT22;59073;51.994;4.448;2023-07-13T14:32:41;24.45;56.61
71291;DHT22;59073;51.994;4.448;2023-07-13T14:35:13;24.50;56.49
71291;DHT22;59073;51.994;4.448;2023-07-13T14:37:40;24.52;57.04
71291;DHT22;59073;51.994;4.448;2023-07-13T14:40:17;24.45;56.83
71291;DHT22;59073;51.994;4.448;2023-07-13T14:42:44;24.44;57.52
71291;DHT22;59073;51.994;4.448;2023-07-13T14:45:15;24.27;57.26
71291;DHT22;59073;51.994;4.448;2023-07-13T14:47:41;24.20;55.99
71291;DHT22;59073;51.994;4.448;2023-07-13T14:50:18;24.01;57.08
71291;DHT22;59073;51.994;4.448;2023-07-13T14:52:46;24.11;59.19
71291;DHT22;59073;51.994;4.448;2023-07-13T14:55:16;24.16;58.42
71291;DHT22;59073;51.994;4.448;2023-07-13T14:57:42;24.34;58.24
71291;DHT22;59073;51.994;4.448;2023-07-13T15:00:14;24.50;58.87
71291;DHT22;59073;51.994;4.448;2023-07-13T15:02:47;24.32;58.72
71291;DHT22;59073;51.994;4.448;2023-07-13T15:05:22;24.23;58.88
71291;DHT22;59073;51.994;4.448;2023-07-13T15:07:51;24.18;58.08
71291;DHT22;59073;51.994;4.448;2023-07-13T15:10:22;24.25;58.73
71291;DHT22;59073;51.994;4.448;2023-07-13T15:12:47;24.37;57.90
71291;DHT22;59073;51.994;4.448;2023-07-13T15:15:14;24.37;58.59
71291;DHT22;59073;51.994;4.448;2023-07-13T15:17:45;24.34;57.28
71291;DHT22;59073;51.994;4.448;2023-07-13T15:20:27;24.23;57.88
71291;DHT22;59073;51.994;4.448;2023-07-13T15:22:54;24.21;57.41
71291;DHT22;59073;51.994;4.448;2023-07-13T15:25:25;24.31;58.21
71291;DHT22;59073;51.994;4.448;2023-07-13T15:27:55;24.31;56.21
71291;DHT22;59073;51.994;4.448;2023-07-13T15:30:21;24.20;57.16
71291;DHT22;59073;51.994;4.448;2023-07-13T15:32:48;24.06;57.11
71291;DHT22;59073;51.994;4.448;2023-07-13T15:35:20;24.07;58.27
71291;DHT22;59073;51.994;4.448;2023-07-13T15:37:46;24.00;58.61
71291;DHT22;59073;51.994;4.448;2023-07-13T15:40:13;24.04;58.14
71291;DHT22;59073;51.994;4.448;2023-07-13T15:42:41;23.86;58.23
71291;DHT22;59073;51.994;4.448;2023-07-13T15:45:24;23.79;58.12
71291;DHT22;59073;51.994;4.448;2023-07-13T15:47:53;23.74;57.61
71291;DHT22;59073;51.994;4.448;2023-07-13T15:50:22;23.69;58.39
71291;DHT22;59073;51.994;4.448;2023-07-13T15:52:51;23.59;58.68
71291;DHT22;59073;51.994;4.448;2023-07-13T15:55:17;23.61;58.11
71291;DHT22;59073;51.994;4.448;2023-07-13T15:57:48;23.58;58.91
71291;DHT22;59073;51.994;4.448;2023-07-13T16:00:26;23.58;60.01
71291;DHT22;59073;51.994;4.448;2023-07-13T16:02:52;23.73;59.39
71291;DHT22;59073;51.994;4.448;2023-07-13T16:05:20;23.62;58.34
71291;DHT22;59073;51.994;4.448;2023-07-13T16:07:49;23.65;56.93
71291;DHT22;59073;51.994;4.448;2023-07-13T16:10:19;23.52;58.69
71291;DHT22;59073;51.994;4.448;2023-07-13T16:12:45;23.38;58.15
71291;DHT22;59073;51.994;4.448;2023-07-13T16:15:18;23.32;59.24
71291;DHT22;59073;51.994;4.448;2023-07-13T16:17:45;23.35;58.32
71291;DHT22;59073;51.994;4.448;2023-07-13T16:20:12;23.26;59.43
71291;DHT22;59073;51.994;4.448;2023-07-13T16:22:44;23.14;59.88